Time;durP1;ratioP1;P1;durP2;ratioP2;P2;SDS_P1;SDS_P2;PMS_P1;PMS_P2;Temp;Humidity;BMP_temperature;BMP_pressure;BME280_temperature;BME280_humidity;BME280_pressure;Samples;Min_cycle;Max_cycle;Signal;HPM_P1;HPM_P2
2022/08/14 00:00:21;;;;;;;6.82;3.88;;;19.70;99.90;19.80;100497.00;;;;4956018;28;102383;-64
2022/08/14 00:02:47;;;;;;;4.95;3.17;;;19.70;99.90;19.80;100501.00;;;;4956216;28;87885;-65
2022/08/14 00:05:17;;;;;;;5.78;4.22;;;19.60;99.90;19.80;100500.00;;;;4956800;28;95501;-64
2022/08/14 00:07:43;;;;;;;6.80;4.25;;;19.60;99.90;19.70;100491.00;;;;4956722;28;99667;-64
2022/08/14 00:10:13;;;;;;;5.97;4.65;;;19.60;99.90;19.70;100495.00;;;;4955107;28;88040;-65
2022/08/14 00:12:45;;;;;;;4.93;3.97;;;19.60;99.90;19.70;100500.00;;;;4953932;28;99120;-64
2022/08/14 00:15:29;;;;;;;6.05;4.18;;;19.60;99.90;19.60;100490.00;;;;4956569;28;87815;-64
2022/08/14 00:17:55;;;;;;;5.15;3.65;;;19.50;99.90;19.60;100482.00;;;;4956532;28;88056;-64
2022/08/14 00:20:31;;;;;;;5.53;4.18;;;19.50;99.90;19.50;100486.00;;;;4956518;28;87814;-64
2022/08/14 00:22:58;;;;;;;6.20;3.90;;;19.40;99.90;19.50;100476.00;;;;4944443;28;87773;-65
2022/08/14 00:25:25;;;;;;;5.47;4.35;;;19.40;99.90;19.50;100472.00;;;;4955608;28;94066;-64
2022/08/14 00:27:51;;;;;;;5.60;4.20;;;19.30;99.90;19.40;100472.00;;;;4955312;28;89204;-64
2022/08/14 00:30:17;;;;;;;5.22;3.75;;;19.30;99.90;19.40;100471.00;;;;4956112;28;99405;-64
2022/08/14 00:32:43;;;;;;;4.75;3.67;;;19.10;99.90;19.30;100475.00;;;;4955553;28;111349;-64
2022/08/14 00:35:10;;;;;;;4.25;3.85;;;19.20;99.90;19.30;100476.00;;;;4956063;28;87586;-65
2022/08/14 00:37:43;;;;;;;7.30;4.82;;;19.20;99.90;19.20;100469.00;;;;4955592;28;89071;-64
2022/08/14 00:40:12;;;;;;;5.13;4.63;;;19.10;99.90;19.20;100472.00;;;;4957118;28;87892;-64
2022/08/14 00:42:38;;;;;;;4.18;3.72;;;19.10;99.90;19.10;100465.00;;;;4961260;28;86869;-64
2022/08/14 00:45:07;;;;;;;3.92;3.55;;;19.00;99.90;19.10;100469.00;;;;4955537;28;102248;-64
2022/08/14 00:47:34;;;;;;;6.03;4.38;;;19.00;99.90;19.00;100472.00;;;;4954461;28;98994;-64
2022/08/14 00:50:03;;;;;;;5.63;4.25;;;18.90;99.90;19.00;100462.00;;;;4936335;28;88591;-64
2022/08/14 00:52:30;;;;;;;5.93;4.70;;;18.90;99.90;18.90;100472.00;;;;4953068;28;87757;-64
2022/08/14 00:54:57;;;;;;;4.25;3.95;;;18.90;99.90;18.90;100472.00;;;;4955539;28;87705;-64
2022/08/14 00:57:27;;;;;;;5.35;4.03;;;18.80;99.90;18.90;100475.00;;;;4955839;28;102592;-64
2022/08/14 00:59:55;;;;;;;5.07;4.07;;;18.70;99.90;18.80;100463.00;;;;4955330;28;99534;-64
2022/08/14 01:02:23;;;;;;;7.43;4.40;;;18.70;99.90;18.80;100466.00;;;;4952764;28;87671;-64
2022/08/14 01:04:52;;;;;;;7.82;4.65;;;18.70;99.90;18.80;100461.00;;;;4956155;28;87561;-64
2022/08/14 01:07:19;;;;;;;4.38;3.97;;;18.70;99.90;18.80;100458.00;;;;4956201;28;87705;-64
2022/08/14 01:09:51;;;;;;;3.13;2.38;;;18.70;99.90;18.80;100462.00;;;;4955770;28;88258;-64
2022/08/14 01:12:18;;;;;;;6.40;4.55;;;18.70;99.90;18.80;100459.00;;;;4955396;28;88070;-64
2022/08/14 01:14:44;;;;;;;7.43;4.22;;;18.70;99.90;18.80;100469.00;;;;4955156;28;88527;-64
2022/08/14 01:17:11;;;;;;;6.20;4.32;;;18.60;99.90;18.70;100455.00;;;;4954780;28;116074;-64
2022/08/14 01:22:21;;;;;;;5.72;5.18;;;18.60;99.90;18.60;100471.00;;;;4953750;28;87966;-64
2022/08/14 01:24:47;;;;;;;7.85;4.35;;;18.50;99.90;18.60;100463.00;;;;4954992;28;97129;-64
2022/08/14 01:27:17;;;;;;;7.65;4.78;;;18.40;99.90;18.50;100453.00;;;;4955583;28;88118;-64
2022/08/14 01:29:45;;;;;;;7.38;4.72;;;18.40;99.90;18.50;100469.00;;;;4954822;28;88732;-64
2022/08/14 01:32:11;;;;;;;9.50;5.15;;;18.40;99.90;18.50;100463.00;;;;4955743;28;86980;-64
2022/08/14 01:34:37;;;;;;;5.57;4.68;;;18.30;99.90;18.40;100464.00;;;;4954578;28;107428;-64
2022/08/14 01:37:03;;;;;;;5.03;4.10;;;18.30;99.90;18.40;100456.00;;;;4954817;28;89129;-64
2022/08/14 01:39:29;;;;;;;6.38;4.40;;;18.50;99.90;18.40;100456.00;;;;4954598;28;88492;-64
2022/08/14 01:41:59;;;;;;;3.97;3.47;;;18.30;99.90;18.40;100454.00;;;;4954023;28;111417;-64
2022/08/14 01:44:28;;;;;;;4.75;4.05;;;18.20;99.90;18.30;100454.00;;;;4955272;28;87781;-64
2022/08/14 01:46:57;;;;;;;5.07;4.60;;;18.20;99.90;18.30;100454.00;;;;4953327;28;87659;-65
2022/08/14 01:49:24;;;;;;;5.60;4.30;;;18.20;99.90;18.30;100451.00;;;;4954864;28;87911;-64
2022/08/14 01:51:55;;;;;;;5.60;4.72;;;18.20;99.90;18.20;100453.00;;;;4955119;28;87668;-64
2022/08/14 01:54:23;;;;;;;5.65;4.63;;;18.10;99.90;18.20;100452.00;;;;4955549;28;87988;-64
2022/08/14 01:56:55;;;;;;;7.38;4.63;;;18.10;99.90;18.20;100455.00;;;;4955478;28;87435;-64
2022/08/14 01:59:31;;;;;;;5.28;4.45;;;18.10;99.90;18.20;100448.00;;;;4955026;28;87946;-64
2022/08/14 02:02:02;;;;;;;5.88;4.20;;;18.10;99.90;18.20;100452.00;;;;4955363;28;87775;-64
2022/08/14 02:04:32;;;;;;;5.90;4.72;;;18.10;99.90;18.20;100442.00;;;;4954445;28;88685;-64
2022/08/14 02:06:58;;;;;;;4.57;3.95;;;18.10;99.90;18.20;100441.00;;;;4954876;28;88003;-64
2022/08/14 02:09:24;;;;;;;4.00;3.60;;;18.10;99.90;18.20;100425.00;;;;4954978;28;87986;-64
2022/08/14 02:11:51;;;;;;;6.05;4.60;;;18.10;99.90;18.20;100430.00;;;;4958480;28;87637;-64
2022/08/14 02:14:18;;;;;;;4.82;4.38;;;18.10;99.90;18.20;100422.00;;;;4958482;28;88765;-64
2022/08/14 02:16:52;;;;;;;5.60;4.30;;;18.10;99.90;18.20;100419.00;;;;4957224;28;118553;-64
2022/08/14 02:19:26;;;;;;;4.90;4.47;;;18.10;99.90;18.20;100421.00;;;;4958553;28;87846;-64
2022/08/14 02:21:56;;;;;;;4.60;4.05;;;18.10;99.90;18.20;100422.00;;;;4958888;28;87207;-64
2022/08/14 02:24:25;;;;;;;6.68;4.95;;;18.10;99.90;18.30;100425.00;;;;4958640;28;88023;-64
2022/08/14 02:26:52;;;;;;;5.22;4.10;;;18.10;99.90;18.20;100424.00;;;;4957569;28;88891;-64
2022/08/14 02:29:22;;;;;;;6.18;5.07;;;18.10;99.90;18.20;100428.00;;;;4957972;28;88760;-65
2022/08/14 02:31:53;;;;;;;8.43;4.82;;;18.10;99.90;18.30;100424.00;;;;4967941;28;87979;-64
2022/08/14 02:34:35;;;;;;;5.20;4.13;;;18.10;99.90;18.30;100428.00;;;;4958524;28;87843;-64
2022/08/14 02:37:06;;;;;;;8.90;4.65;;;18.10;99.90;18.30;100428.00;;;;4972801;28;88596;-64
2022/08/14 02:39:36;;;;;;;7.35;4.65;;;18.20;99.90;18.30;100434.00;;;;4958290;28;88630;-64
2022/08/14 02:42:02;;;;;;;7.82;4.75;;;18.20;99.90;18.30;100435.00;;;;4956545;28;101440;-64
2022/08/14 02:44:28;;;;;;;9.75;6.72;;;18.20;99.90;18.30;100435.00;;;;4959049;28;87701;-65
2022/08/14 02:46:56;;;;;;;6.30;4.93;;;18.20;99.90;18.30;100422.00;;;;4957845;28;117644;-64
2022/08/14 02:49:26;;;;;;;5.65;5.10;;;18.20;99.90;18.30;100434.00;;;;4957273;28;87735;-64
2022/08/14 02:51:52;;;;;;;7.18;5.25;;;18.20;99.90;18.30;100427.00;;;;4957684;28;87838;-64
2022/08/14 02:54:19;;;;;;;4.90;4.43;;;18.20;99.90;18.30;100425.00;;;;4957390;28;89128;-64
2022/08/14 02:56:45;;;;;;;7.45;5.97;;;18.10;99.90;18.20;100436.00;;;;4957430;28;89414;-64
2022/08/14 02:59:12;;;;;;;6.43;4.97;;;18.10;99.90;18.20;100432.00;;;;4957523;28;88692;-64
2022/08/14 03:01:39;;;;;;;6.68;5.03;;;18.10;99.90;18.20;100444.00;;;;4957502;28;87816;-64
2022/08/14 03:04:06;;;;;;;6.32;5.35;;;18.10;99.90;18.20;100437.00;;;;4959127;28;87719;-64
2022/08/14 03:06:32;;;;;;;5.90;4.90;;;18.00;99.90;18.20;100434.00;;;;4958555;28;88131;-64
2022/08/14 03:08:58;;;;;;;5.75;5.13;;;18.00;99.90;18.10;100428.00;;;;4956556;28;118068;-64
2022/08/14 03:11:25;;;;;;;6.70;4.97;;;18.00;99.90;18.10;100417.00;;;;4958876;28;88049;-64
2022/08/14 03:13:51;;;;;;;8.40;5.40;;;18.00;99.90;18.20;100425.00;;;;4956409;28;87516;-64
2022/08/14 03:16:23;;;;;;;6.07;4.85;;;18.00;99.90;18.20;100412.00;;;;4957250;28;96375;-64
2022/08/14 03:18:57;;;;;;;7.38;5.60;;;18.00;99.90;18.20;100423.00;;;;4955909;28;107772;-64
2022/08/14 03:21:23;;;;;;;6.45;5.18;;;18.00;99.90;18.20;100425.00;;;;4958069;28;87623;-64
2022/08/14 03:24:03;;;;;;;5.75;4.72;;;18.10;99.90;18.20;100417.00;;;;4957316;28;87807;-64
2022/08/14 03:26:28;;;;;;;4.20;3.90;;;18.10;99.90;18.30;100430.00;;;;4956743;28;87766;-64
2022/08/14 03:28:54;;;;;;;5.00;4.50;;;18.10;99.90;18.30;100422.00;;;;4957135;28;89472;-64
2022/08/14 03:31:22;;;;;;;6.45;4.43;;;18.10;99.90;18.30;100409.00;;;;4955843;28;109421;-64
2022/08/14 03:33:50;;;;;;;6.05;5.45;;;18.10;99.90;18.30;100422.00;;;;4956788;28;87681;-64
2022/08/14 03:36:19;;;;;;;5.90;4.55;;;18.10;99.90;18.20;100416.00;;;;4958519;28;87365;-64
2022/08/14 03:38:48;;;;;;;8.57;5.75;;;18.10;99.90;18.20;100409.00;;;;4936461;28;88080;-64
2022/08/14 03:41:17;;;;;;;9.73;5.57;;;18.10;99.90;18.20;100404.00;;;;4938012;28;87801;-65
2022/08/14 03:43:45;;;;;;;8.02;5.18;;;18.10;99.90;18.20;100401.00;;;;4954974;28;88775;-64
2022/08/14 03:46:13;;;;;;;4.97;4.43;;;18.10;99.90;18.20;100401.00;;;;4936816;28;107924;-64
2022/08/14 03:48:40;;;;;;;7.20;4.63;;;18.10;99.90;18.20;100404.00;;;;4939901;28;108836;-64
2022/08/14 03:51:09;;;;;;;5.97;5.38;;;18.10;99.90;18.20;100409.00;;;;4937019;28;103346;-64
2022/08/14 03:53:39;;;;;;;5.68;4.35;;;18.00;99.90;18.20;100400.00;;;;4954896;28;87833;-64
2022/08/14 03:56:06;;;;;;;5.07;4.38;;;18.10;99.90;18.20;100410.00;;;;4956615;28;87712;-64
2022/08/14 03:58:33;;;;;;;5.30;4.70;;;18.10;99.90;18.30;100402.00;;;;4970604;28;88505;-64
2022/08/14 04:01:00;;;;;;;7.70;4.95;;;18.10;99.90;18.30;100399.00;;;;4956968;28;91732;-64
2022/08/14 04:03:26;;;;;;;8.00;5.97;;;18.10;99.90;18.30;100392.00;;;;4957337;28;87990;-67
2022/08/14 04:05:52;;;;;;;7.00;5.53;;;18.10;99.90;18.30;100392.00;;;;4957874;28;90732;-64
2022/08/14 04:08:19;;;;;;;5.47;4.97;;;18.10;99.90;18.30;100389.00;;;;4956880;28;88782;-65
2022/08/14 04:10:46;;;;;;;8.27;5.82;;;18.10;99.90;18.30;100386.00;;;;4957069;28;87819;-64
2022/08/14 04:13:16;;;;;;;7.90;5.95;;;18.10;99.90;18.30;100385.00;;;;4955867;28;99619;-64
2022/08/14 04:15:44;;;;;;;7.95;5.85;;;18.20;99.90;18.30;100381.00;;;;4956526;28;89107;-64
2022/08/14 04:18:10;;;;;;;9.77;4.95;;;18.10;99.90;18.30;100374.00;;;;4957133;28;87776;-64
2022/08/14 04:20:38;;;;;;;7.25;6.18;;;18.10;99.90;18.30;100378.00;;;;4956702;28;87783;-64
2022/08/14 04:23:05;;;;;;;6.13;5.00;;;18.10;99.90;18.30;100371.00;;;;4956746;28;87903;-64
2022/08/14 04:25:32;;;;;;;7.22;4.90;;;18.10;99.90;18.30;100382.00;;;;4956571;28;88362;-64
2022/08/14 04:27:59;;;;;;;5.53;4.88;;;18.10;99.90;18.30;100382.00;;;;4956442;28;87737;-64
2022/08/14 04:30:29;;;;;;;6.90;5.68;;;18.10;99.90;18.30;100389.00;;;;4955919;28;99088;-64
2022/08/14 04:32:56;;;;;;;5.78;5.18;;;18.40;99.90;18.30;100388.00;;;;4956760;28;88777;-64
2022/08/14 04:35:22;;;;;;;5.80;4.75;;;18.20;99.90;18.40;100381.00;;;;4954630;28;109245;-64
2022/08/14 04:43:35;;;;;;;8.88;6.28;;;18.20;99.90;18.40;100385.00;;;;4955596;28;87725;-64
2022/08/14 04:46:09;;;;;;;6.93;5.55;;;18.20;99.90;18.40;100388.00;;;;4955799;28;88463;-64
2022/08/14 04:48:35;;;;;;;9.20;5.90;;;18.30;99.90;18.50;100386.00;;;;4945571;28;102204;-64
2022/08/14 04:51:06;;;;;;;7.97;6.15;;;18.30;99.90;18.50;100374.00;;;;4943753;28;100848;-64
2022/08/14 04:53:35;;;;;;;8.38;5.75;;;18.30;99.90;18.50;100376.00;;;;4955780;28;87720;-64
2022/08/14 04:56:01;;;;;;;6.28;5.15;;;18.30;99.90;18.60;100379.00;;;;4955614;28;88298;-64
2022/08/14 04:58:31;;;;;;;7.70;5.45;;;18.30;99.90;18.60;100365.00;;;;4955682;28;88866;-64
2022/08/14 05:00:58;;;;;;;7.47;5.72;;;18.40;99.90;18.70;100368.00;;;;4956284;28;87773;-63
2022/08/14 05:03:28;;;;;;;11.30;6.53;;;18.50;99.90;18.80;100367.00;;;;4959892;28;88037;-64
2022/08/14 05:06:03;;;;;;;7.18;5.78;;;18.60;99.90;18.90;100366.00;;;;4955679;28;88872;-63
2022/08/14 05:08:30;;;;;;;4.93;4.45;;;18.70;99.90;19.10;100358.00;;;;4952671;28;87742;-63
2022/08/14 05:10:59;;;;;;;7.18;5.72;;;18.80;99.90;19.30;100358.00;;;;4965936;28;88040;-63
2022/08/14 05:13:30;;;;;;;9.48;6.85;;;19.00;99.90;19.50;100357.00;;;;4953170;28;87770;-64
2022/08/14 05:15:58;;;;;;;10.30;5.93;;;19.20;99.90;19.60;100356.00;;;;4946498;28;88366;-64
2022/08/14 05:18:28;;;;;;;6.40;5.82;;;19.30;99.90;19.80;100356.00;;;;4949569;28;87806;-63
2022/08/14 05:20:57;;;;;;;8.00;5.80;;;19.50;99.90;20.00;100353.00;;;;4951776;28;87900;-64
2022/08/14 05:23:29;;;;;;;7.03;6.00;;;19.70;99.90;20.10;100362.00;;;;4951727;28;88689;-64
2022/08/14 05:26:11;;;;;;;7.30;5.68;;;19.90;99.90;20.30;100368.00;;;;4950843;28;89382;-64
2022/08/14 05:28:43;;;;;;;5.70;4.78;;;20.00;99.90;20.40;100364.00;;;;4951551;28;88949;-64
2022/08/14 05:31:14;;;;;;;10.98;6.53;;;20.10;99.90;20.60;100360.00;;;;4952499;28;87683;-64
2022/08/14 05:33:40;;;;;;;10.40;6.55;;;20.30;99.90;20.70;100349.00;;;;4951717;28;87710;-64
2022/08/14 05:36:10;;;;;;;6.90;4.70;;;20.40;99.90;20.90;100345.00;;;;4950119;28;118616;-64
2022/08/14 05:38:41;;;;;;;6.68;4.72;;;20.60;99.90;21.00;100338.00;;;;4951862;28;88239;-64
2022/08/14 05:41:11;;;;;;;9.07;6.03;;;20.70;99.90;21.30;100348.00;;;;4963787;28;86973;-64
2022/08/14 05:43:39;;;;;;;6.93;4.70;;;21.00;99.90;21.50;100343.00;;;;4951645;28;87836;-64
2022/08/14 05:46:06;;;;;;;5.68;4.53;;;21.20;99.90;21.80;100342.00;;;;4955431;28;88710;-64
2022/08/14 05:48:31;;;;;;;8.48;5.72;;;21.40;99.90;22.00;100341.00;;;;4957784;28;90102;-65
2022/08/14 05:50:58;;;;;;;10.18;6.05;;;21.70;99.90;22.30;100340.00;;;;4958082;28;87559;-64
2022/08/14 05:53:26;;;;;;;7.13;5.00;;;21.90;99.90;22.60;100337.00;;;;4957595;28;109113;-64
2022/08/14 05:55:54;;;;;;;5.93;5.15;;;22.20;99.90;22.80;100352.00;;;;4955183;28;88255;-64
2022/08/14 05:58:21;;;;;;;5.00;4.18;;;22.50;99.90;23.10;100352.00;;;;4957810;28;89013;-64
2022/08/14 06:00:48;;;;;;;7.50;5.28;;;22.70;99.90;23.40;100341.00;;;;4957732;28;89387;-64
2022/08/14 06:03:22;;;;;;;6.40;4.75;;;23.00;99.90;23.60;100335.00;;;;4958433;28;87706;-64
2022/08/14 06:05:51;;;;;;;9.48;5.10;;;23.30;99.90;23.90;100341.00;;;;4958038;28;88313;-64
2022/08/14 06:08:26;;;;;;;7.78;3.55;;;23.50;99.90;24.20;100335.00;;;;4956615;28;88381;-64
2022/08/14 06:10:55;;;;;;;6.50;4.43;;;23.80;99.90;24.40;100332.00;;;;4958110;28;87969;-64
2022/08/14 06:13:21;;;;;;;7.50;4.68;;;24.00;99.90;24.70;100334.00;;;;4957248;28;88858;-64
2022/08/14 06:15:49;;;;;;;5.75;4.15;;;24.30;99.90;24.90;100336.00;;;;4956540;28;102343;-65
2022/08/14 06:18:16;;;;;;;5.93;4.65;;;24.50;99.90;25.10;100314.00;;;;4957572;28;88777;-64
2022/08/14 06:20:43;;;;;;;5.60;4.75;;;24.80;99.90;25.20;100331.00;;;;4957856;28;87810;-64
2022/08/14 06:23:09;;;;;;;6.03;4.30;;;24.90;99.90;25.30;100333.00;;;;4957862;28;87639;-65
2022/08/14 06:25:35;;;;;;;7.13;4.68;;;25.20;99.90;25.40;100326.00;;;;4956142;28;117444;-64
2022/08/14 06:28:00;;;;;;;7.38;4.63;;;25.20;99.90;25.40;100324.00;;;;4956735;28;101224;-65
2022/08/14 06:30:33;;;;;;;6.63;4.88;;;25.20;99.90;25.50;100315.00;;;;4957516;28;86736;-65
2022/08/14 06:32:59;;;;;;;7.65;4.50;;;25.20;99.90;25.50;100319.00;;;;4957802;28;87693;-64
2022/08/14 06:35:26;;;;;;;6.55;4.75;;;25.30;99.90;25.60;100321.00;;;;4956414;28;118402;-65
2022/08/14 06:37:59;;;;;;;6.70;4.35;;;25.30;99.90;25.80;100313.00;;;;4957709;28;88869;-65
2022/08/14 06:40:32;;;;;;;5.20;3.42;;;25.50;99.90;26.00;100318.00;;;;4957469;28;87827;-64
2022/08/14 06:43:04;;;;;;;6.25;4.20;;;25.70;99.90;26.30;100322.00;;;;4957701;28;87831;-64
2022/08/14 06:45:32;;;;;;;6.13;4.20;;;25.90;99.40;26.60;100325.00;;;;4956647;28;87996;-64
2022/08/14 06:48:00;;;;;;;5.13;4.63;;;26.20;98.80;26.80;100324.00;;;;4957087;28;93754;-64
2022/08/14 06:50:27;;;;;;;7.00;4.55;;;26.40;97.30;27.00;100325.00;;;;4957880;28;87856;-64
2022/08/14 06:52:54;;;;;;;8.27;5.55;;;26.60;95.80;27.00;100324.00;;;;4957428;28;87547;-65
2022/08/14 06:55:20;;;;;;;8.23;5.32;;;26.70;95.30;27.10;100326.00;;;;4957438;28;87838;-65
2022/08/14 06:57:49;;;;;;;6.15;3.95;;;26.80;95.00;27.30;100333.00;;;;4952833;28;106570;-65
2022/08/14 07:00:22;;;;;;;5.50;4.00;;;26.90;94.70;27.50;100325.00;;;;4954157;28;87705;-65
2022/08/14 07:05:45;;;;;;;5.65;3.90;;;27.40;94.00;28.10;100308.00;;;;4953764;28;88094;-64
2022/08/14 07:08:27;;;;;;;8.23;4.57;;;27.70;93.50;28.40;100316.00;;;;4949165;28;87955;-63
2022/08/14 07:10:58;;;;;;;7.22;3.70;;;28.00;92.60;28.70;100304.00;;;;4954768;28;87940;-64
2022/08/14 07:13:25;;;;;;;4.93;4.18;;;28.30;92.00;29.00;100308.00;;;;4955008;28;87783;-65
2022/08/14 07:15:54;;;;;;;6.90;4.30;;;28.60;90.80;29.20;100303.00;;;;4953510;28;88427;-65
2022/08/14 07:18:29;;;;;;;4.25;3.55;;;28.80;89.40;29.30;100296.00;;;;4952965;28;96383;-65
2022/08/14 07:20:57;;;;;;;5.32;3.65;;;29.00;85.00;29.40;100296.00;;;;4954249;28;87321;-64
2022/08/14 07:23:22;;;;;;;4.18;3.17;;;29.00;83.20;29.40;100290.00;;;;4954568;28;87800;-64
2022/08/14 07:25:51;;;;;;;3.58;2.75;;;29.10;82.50;29.50;100292.00;;;;4950657;28;118304;-65
2022/08/14 07:28:22;;;;;;;5.90;4.22;;;29.10;81.50;29.60;100296.00;;;;4952559;28;89134;-63
2022/08/14 07:30:57;;;;;;;4.90;3.63;;;29.20;80.00;29.60;100311.00;;;;4953700;28;89975;-64
2022/08/14 07:33:30;;;;;;;2.90;2.67;;;29.30;79.80;29.70;100307.00;;;;4953685;28;88105;-64
2022/08/14 07:36:01;;;;;;;3.75;2.65;;;29.40;79.10;29.90;100304.00;;;;4953411;28;89376;-64
2022/08/14 07:38:27;;;;;;;3.50;3.13;;;29.50;79.30;30.10;100298.00;;;;4952782;28;88656;-64
2022/08/14 07:40:53;;;;;;;3.40;2.70;;;29.70;77.60;30.20;100297.00;;;;4953933;28;87945;-64
2022/08/14 07:43:20;;;;;;;4.88;3.17;;;29.80;74.80;30.20;100292.00;;;;4953726;28;87877;-64
2022/08/14 07:45:45;;;;;;;3.25;2.58;;;29.90;72.70;30.20;100294.00;;;;4953057;28;88420;-63
2022/08/14 07:48:11;;;;;;;4.25;2.83;;;29.90;73.00;30.30;100293.00;;;;4952080;28;116050;-65
2022/08/14 07:50:38;;;;;;;5.05;3.33;;;29.90;72.10;30.40;100287.00;;;;4952529;28;110318;-64
2022/08/14 07:53:05;;;;;;;3.15;2.85;;;30.00;71.50;30.60;100286.00;;;;4953514;28;89106;-63
2022/08/14 07:55:31;;;;;;;2.65;2.40;;;30.10;71.40;30.80;100288.00;;;;4952058;28;89194;-63
2022/08/14 07:57:57;;;;;;;4.22;2.67;;;30.40;67.70;30.70;100287.00;;;;4951935;28;107522;-64
2022/08/14 08:00:24;;;;;;;9.45;3.15;;;30.40;68.20;30.80;100284.00;;;;4952402;28;108786;-64
2022/08/14 08:02:53;;;;;;;3.85;2.97;;;30.40;68.20;31.00;100289.00;;;;4953784;28;87624;-65
2022/08/14 08:05:23;;;;;;;6.05;2.53;;;30.60;67.60;31.00;100281.00;;;;4952999;28;88804;-64
2022/08/14 08:07:50;;;;;;;2.17;1.98;;;30.70;66.60;31.20;100280.00;;;;4952092;28;88424;-65
2022/08/14 08:10:32;;;;;;;3.95;2.60;;;30.80;65.60;31.40;100276.00;;;;4953468;28;98908;-64
2022/08/14 08:13:16;;;;;;;3.88;2.17;;;31.00;65.10;31.50;100275.00;;;;4952714;28;88378;-65
2022/08/14 08:15:55;;;;;;;3.55;2.40;;;31.10;64.80;31.70;100275.00;;;;4953005;28;89006;-64
2022/08/14 08:18:22;;;;;;;3.13;2.75;;;31.30;63.60;31.80;100274.00;;;;4985122;28;88306;-64
2022/08/14 08:20:53;;;;;;;4.60;2.67;;;31.40;62.60;32.00;100276.00;;;;4972330;28;87804;-64
2022/08/14 08:23:23;;;;;;;4.10;2.30;;;31.60;62.40;32.20;100273.00;;;;4953526;28;100877;-64
2022/08/14 08:25:50;;;;;;;3.75;2.85;;;31.70;60.50;32.30;100268.00;;;;4952399;28;89041;-64
2022/08/14 08:28:19;;;;;;;4.90;2.97;;;31.90;59.50;32.30;100259.00;;;;4951960;28;91570;-64
2022/08/14 08:30:55;;;;;;;4.95;2.78;;;31.90;59.10;32.20;100268.00;;;;4953094;28;87873;-64
2022/08/14 08:33:25;;;;;;;3.22;2.17;;;31.90;57.70;32.10;100265.00;;;;4954592;28;87695;-65
2022/08/14 08:35:51;;;;;;;3.75;2.90;;;31.80;58.10;32.20;100253.00;;;;4953166;28;88154;-64
2022/08/14 08:38:22;;;;;;;3.78;2.50;;;31.80;57.60;32.10;100274.00;;;;4952540;28;87989;-65
2022/08/14 08:40:50;;;;;;;4.28;2.72;;;31.70;56.70;31.90;100269.00;;;;4953356;28;87828;-65
2022/08/14 08:43:29;;;;;;;3.90;2.90;;;31.60;56.40;31.90;100272.00;;;;4951873;28;88809;-64
2022/08/14 08:46:02;;;;;;;2.22;2.03;;;31.50;56.90;31.90;100273.00;;;;4952135;28;94235;-65
2022/08/14 08:48:50;;;;;;;2.65;1.88;;;31.50;57.00;32.00;100267.00;;;;4952798;28;88665;-64
2022/08/14 08:51:31;;;;;;;3.97;3.33;;;31.60;56.60;32.00;100269.00;;;;4952018;28;87923;-65
2022/08/14 08:54:10;;;;;;;3.58;2.70;;;31.60;55.80;32.10;100268.00;;;;4952855;28;87769;-65
2022/08/14 08:56:42;;;;;;;4.85;2.85;;;31.60;55.20;32.10;100264.00;;;;4951996;28;87967;-65
2022/08/14 08:59:29;;;;;;;3.00;2.53;;;31.70;54.60;32.00;100254.00;;;;4952192;28;89916;-64
2022/08/14 09:02:05;;;;;;;3.70;2.70;;;31.60;54.40;32.00;100255.00;;;;4952544;28;87459;-65
2022/08/14 09:04:46;;;;;;;3.17;2.33;;;31.60;54.00;32.10;100250.00;;;;4952482;28;87987;-64
2022/08/14 09:07:13;;;;;;;3.65;1.85;;;31.60;52.60;32.20;100248.00;;;;4951340;28;88882;-64
2022/08/14 09:09:51;;;;;;;2.97;2.33;;;31.70;51.80;32.20;100242.00;;;;4951093;28;89314;-64
2022/08/14 09:12:18;;;;;;;6.63;2.50;;;31.70;51.90;32.30;100241.00;;;;4956649;28;88067;-64
2022/08/14 09:14:46;;;;;;;14.93;2.22;;;31.70;51.70;32.40;100242.00;;;;4952645;28;87808;-64
2022/08/14 09:17:12;;;;;;;4.95;2.42;;;31.90;52.30;32.60;100248.00;;;;4948183;28;88806;-65
2022/08/14 09:19:38;;;;;;;3.03;2.13;;;32.10;52.30;32.80;100241.00;;;;4945001;28;118054;-65
2022/08/14 09:22:05;;;;;;;4.57;2.75;;;32.30;52.10;32.90;100241.00;;;;4952060;28;87809;-64
2022/08/14 09:24:31;;;;;;;6.43;3.38;;;32.40;51.00;32.80;100242.00;;;;4951376;28;98304;-65
2022/08/14 09:26:58;;;;;;;2.80;2.42;;;32.30;50.80;32.70;100235.00;;;;4951530;28;98671;-66
2022/08/14 09:29:24;;;;;;;4.28;2.75;;;32.30;51.20;32.70;100237.00;;;;4951170;28;88189;-64
2022/08/14 09:31:55;;;;;;;2.25;2.05;;;32.20;50.50;32.80;100242.00;;;;4951491;28;87843;-64
2022/08/14 09:34:56;;;;;;;3.63;2.20;;;32.30;49.80;33.00;100235.00;;;;4948718;28;88875;-65
2022/08/14 09:37:48;;;;;;;3.40;2.17;;;32.40;49.50;33.00;100241.00;;;;4947738;28;112366;-64
2022/08/14 09:40:38;;;;;;;3.88;2.05;;;32.50;49.90;33.10;100243.00;;;;4958726;28;88584;-65
2022/08/14 09:43:12;;;;;;;2.58;1.95;;;32.60;49.60;33.30;100235.00;;;;4967238;28;87699;-64
2022/08/14 09:45:46;;;;;;;3.95;2.15;;;32.70;49.60;33.60;100216.00;;;;4951355;28;92761;-65
2022/08/14 09:48:16;;;;;;;3.00;2.13;;;32.90;49.60;33.90;100210.00;;;;4950830;28;87834;-65
2022/08/14 09:50:44;;;;;;;2.03;1.83;;;33.30;49.00;34.10;100210.00;;;;4951501;28;88878;-65
2022/08/14 09:53:15;;;;;;;3.85;2.72;;;33.40;48.70;34.20;100209.00;;;;4951837;28;94087;-65
2022/08/14 09:55:41;;;;;;;3.47;2.20;;;33.60;48.10;34.40;100204.00;;;;4951655;28;87785;-65
2022/08/14 09:58:15;;;;;;;3.85;2.72;;;33.70;48.60;34.60;100212.00;;;;4948290;28;117904;-65
2022/08/14 10:00:59;;;;;;;2.15;1.77;;;33.90;48.00;34.90;100210.00;;;;4951144;28;89055;-64
2022/08/14 10:03:34;;;;;;;3.92;2.40;;;34.20;47.30;35.00;100202.00;;;;4949785;28;87774;-65
2022/08/14 10:06:08;;;;;;;3.47;2.00;;;34.30;46.20;34.80;100197.00;;;;4945158;28;87687;-66
2022/08/14 10:08:49;;;;;;;2.63;2.00;;;34.20;45.70;34.70;100197.00;;;;4950388;28;88847;-64
2022/08/14 10:11:28;;;;;;;3.22;2.53;;;34.10;46.60;34.70;100187.00;;;;4951673;28;88288;-66
2022/08/14 10:14:03;;;;;;;3.15;2.85;;;34.10;46.60;34.60;100185.00;;;;4949018;28;88038;-65
2022/08/14 10:16:29;;;;;;;2.70;2.15;;;34.00;46.30;34.50;100173.00;;;;4949818;28;87718;-64
2022/08/14 10:19:05;;;;;;;2.70;2.05;;;34.00;46.70;34.70;100167.00;;;;4952030;28;87748;-65
2022/08/14 10:21:31;;;;;;;3.65;2.80;;;34.00;46.60;34.80;100164.00;;;;4952166;28;87827;-65
2022/08/14 10:23:56;;;;;;;3.72;2.45;;;34.10;45.80;35.00;100174.00;;;;4949874;28;101136;-65
2022/08/14 10:26:24;;;;;;;4.22;2.80;;;34.30;46.10;35.10;100166.00;;;;4950266;28;109135;-65
2022/08/14 10:28:52;;;;;;;3.03;2.45;;;34.30;45.40;35.20;100157.00;;;;4950218;28;88640;-65
2022/08/14 10:31:32;;;;;;;2.85;2.30;;;34.50;45.10;35.40;100154.00;;;;4950790;28;88660;-65
2022/08/14 10:34:08;;;;;;;3.25;2.42;;;34.60;44.50;35.30;100154.00;;;;4954107;28;87907;-65
2022/08/14 10:36:47;;;;;;;3.92;2.33;;;34.70;44.00;35.00;100150.00;;;;4954535;28;87854;-65
2022/08/14 10:39:22;;;;;;;3.28;2.58;;;34.40;43.70;34.90;100155.00;;;;4954143;28;88673;-65
2022/08/14 10:41:48;;;;;;;2.88;2.08;;;34.30;43.80;34.80;100147.00;;;;4954575;28;88426;-65
2022/08/14 10:44:21;;;;;;;4.30;2.63;;;34.20;44.20;34.70;100151.00;;;;4952404;28;87230;-65
2022/08/14 10:46:57;;;;;;;2.55;2.25;;;34.10;44.60;34.90;100140.00;;;;4954503;28;88078;-66
2022/08/14 10:49:27;;;;;;;3.33;2.50;;;34.20;44.50;35.00;100147.00;;;;4950201;28;88903;-65
2022/08/14 10:51:58;;;;;;;2.50;1.95;;;34.30;43.80;34.90;100127.00;;;;4954173;28;89008;-64
2022/08/14 10:54:47;;;;;;;4.57;2.67;;;34.30;43.70;34.50;100133.00;;;;4955130;28;87973;-65
2022/08/14 10:57:19;;;;;;;4.03;2.65;;;34.20;43.30;34.20;100123.00;;;;4954431;28;98169;-66
2022/08/14 10:59:48;;;;;;;3.70;2.33;;;33.80;43.40;33.90;100128.00;;;;4953914;28;88346;-65
2022/08/14 11:02:24;;;;;;;3.03;2.22;;;33.50;44.00;33.90;100120.00;;;;4953753;28;87909;-65
2022/08/14 11:05:13;;;;;;;2.90;2.25;;;33.40;44.30;33.70;100119.00;;;;4954426;28;88208;-66
2022/08/14 11:07:52;;;;;;;2.90;2.20;;;33.20;44.60;33.90;100119.00;;;;4948477;28;87647;-65